Time;durP1;ratioP1;P1;durP2;ratioP2;P2;SDS_P1;SDS_P2;PMS_P1;PMS_P2;Temp;Humidity;BMP_temperature;BMP_pressure;BME280_temperature;BME280_humidity;BME280_pressure;Samples;Min_cycle;Max_cycle;Signal;HPM_P1;HPM_P2
2022/09/27 00:01:28;;;;;;;4.30;2.10;;;11.50;99.90;;;;;;4956116;29;20202;-68
2022/09/27 00:03:59;;;;;;;3.83;1.80;;;11.50;99.90;;;;;;4956120;29;20196;-68
2022/09/27 00:06:31;;;;;;;2.67;1.50;;;11.40;99.90;;;;;;4955984;29;20218;-69
2022/09/27 00:09:00;;;;;;;2.77;1.57;;;11.30;99.90;;;;;;4955953;29;20198;-68
2022/09/27 00:11:31;;;;;;;3.43;1.87;;;11.30;99.90;;;;;;4955986;29;20195;-69
2022/09/27 00:14:01;;;;;;;3.47;1.67;;;11.20;99.90;;;;;;4955965;29;20187;-68
2022/09/27 00:16:33;;;;;;;2.63;1.20;;;11.20;99.90;;;;;;4954926;28;20227;-68
2022/09/27 00:19:03;;;;;;;3.77;1.60;;;11.10;99.90;;;;;;4955718;29;20238;-67
2022/09/27 00:21:34;;;;;;;1.50;1.30;;;11.00;99.90;;;;;;4955801;29;20655;-67
2022/09/27 00:24:03;;;;;;;2.60;1.30;;;11.00;99.90;;;;;;4955740;29;20187;-66
2022/09/27 00:26:32;;;;;;;2.87;1.40;;;11.00;99.90;;;;;;4955665;29;20199;-64
2022/09/27 00:29:01;;;;;;;1.77;1.20;;;10.90;99.90;;;;;;4955718;29;20195;-65
2022/09/27 00:31:31;;;;;;;1.30;1.17;;;10.90;99.90;;;;;;4955515;29;20214;-65
2022/09/27 00:34:02;;;;;;;2.10;1.27;;;10.90;99.90;;;;;;4938449;29;20202;-66
2022/09/27 00:36:33;;;;;;;4.47;1.33;;;10.90;99.90;;;;;;4955379;29;20226;-66
2022/09/27 00:39:02;;;;;;;1.47;1.20;;;10.90;99.90;;;;;;4974230;28;20311;-66
2022/09/27 00:41:34;;;;;;;1.30;1.10;;;10.90;99.90;;;;;;4957539;28;20199;-68
2022/09/27 00:44:05;;;;;;;1.80;1.07;;;10.90;99.90;;;;;;4957381;28;20179;-68
2022/09/27 00:46:39;;;;;;;1.57;1.10;;;10.90;99.90;;;;;;4957317;28;20190;-68
2022/09/27 00:49:16;;;;;;;3.10;1.23;;;10.90;99.90;;;;;;4957875;28;20185;-69
2022/09/27 00:51:49;;;;;;;1.30;0.90;;;10.90;99.90;;;;;;4974556;28;20190;-68
2022/09/27 00:54:20;;;;;;;3.63;1.23;;;10.90;99.90;;;;;;4957312;28;20198;-68
2022/09/27 00:56:49;;;;;;;2.07;1.13;;;10.90;99.90;;;;;;4974448;28;20565;-69
2022/09/27 00:59:24;;;;;;;1.77;1.10;;;10.90;99.90;;;;;;4974342;28;20234;-69
2022/09/27 01:01:53;;;;;;;2.13;0.90;;;10.90;99.90;;;;;;4957209;28;20197;-69
2022/09/27 01:04:26;;;;;;;1.50;0.80;;;10.90;99.90;;;;;;4956890;28;20194;-69
2022/09/27 01:06:57;;;;;;;1.50;0.90;;;10.90;99.90;;;;;;4974264;28;20543;-69
2022/09/27 01:09:26;;;;;;;1.77;1.00;;;10.90;99.90;;;;;;4974271;28;20556;-68
2022/09/27 01:12:08;;;;;;;1.00;0.80;;;10.80;99.90;;;;;;4974179;28;20199;-68
2022/09/27 01:14:55;;;;;;;1.37;0.80;;;10.80;99.90;;;;;;4974168;28;20225;-67
2022/09/27 01:17:34;;;;;;;0.77;0.70;;;10.80;99.90;;;;;;4974071;28;20310;-67
2022/09/27 01:20:32;;;;;;;0.93;0.70;;;10.80;99.90;;;;;;4956674;28;20226;-67
2022/09/27 01:23:20;;;;;;;1.27;0.90;;;10.70;99.90;;;;;;4940658;28;20206;-67
2022/09/27 01:26:02;;;;;;;1.00;0.90;;;10.60;99.90;;;;;;4956540;28;20245;-67
2022/09/27 01:28:47;;;;;;;1.30;0.80;;;10.60;99.90;;;;;;4952757;28;20221;-67
2022/09/27 01:31:24;;;;;;;2.07;0.60;;;10.50;99.90;;;;;;4971119;28;20209;-67
2022/09/27 01:34:02;;;;;;;1.53;0.87;;;10.50;99.90;;;;;;4956669;28;20670;-67
2022/09/27 01:36:42;;;;;;;1.93;0.80;;;10.40;99.90;;;;;;4972622;28;20226;-67
2022/09/27 01:39:32;;;;;;;1.47;0.90;;;10.30;99.90;;;;;;4972573;28;20221;-67
2022/09/27 01:42:25;;;;;;;2.40;0.90;;;10.30;99.90;;;;;;4973901;28;20199;-69
2022/09/27 01:45:02;;;;;;;1.50;0.83;;;10.10;99.90;;;;;;4972537;28;20230;-67
2022/09/27 01:47:51;;;;;;;1.23;0.90;;;10.10;99.90;;;;;;4972522;28;20182;-66
2022/09/27 01:50:54;;;;;;;2.00;0.80;;;10.10;99.90;;;;;;4961102;28;20198;-67
2022/09/27 01:53:27;;;;;;;1.87;0.97;;;10.00;99.90;;;;;;4972542;28;20190;-67
2022/09/27 01:56:16;;;;;;;2.20;0.80;;;10.00;99.90;;;;;;4971778;28;20237;-66
2022/09/27 01:59:09;;;;;;;2.13;1.00;;;10.00;99.90;;;;;;4971418;28;20702;-66
2022/09/27 02:01:48;;;;;;;1.80;1.03;;;10.00;99.90;;;;;;4972414;28;20557;-67
2022/09/27 02:04:24;;;;;;;1.70;0.80;;;9.90;99.90;;;;;;4972379;28;20190;-66
2022/09/27 02:07:11;;;;;;;2.00;1.00;;;9.80;99.90;;;;;;4972288;28;20191;-66
2022/09/27 02:09:45;;;;;;;2.43;1.10;;;9.80;99.90;;;;;;4972293;28;20197;-66
2022/09/27 02:12:27;;;;;;;1.70;1.00;;;9.70;99.90;;;;;;4973512;28;20199;-66
2022/09/27 02:15:03;;;;;;;1.20;0.97;;;9.70;99.90;;;;;;4973295;28;20236;-66
2022/09/27 02:17:42;;;;;;;1.37;0.70;;;9.60;99.90;;;;;;4972301;28;20190;-66
2022/09/27 02:20:19;;;;;;;2.00;0.93;;;9.60;99.90;;;;;;4956035;28;20222;-65
2022/09/27 02:23:00;;;;;;;1.20;1.10;;;9.60;99.90;;;;;;4973365;28;20650;-66
2022/09/27 02:25:34;;;;;;;3.23;1.27;;;9.60;99.90;;;;;;4971349;28;20676;-67
2022/09/27 02:28:14;;;;;;;1.77;1.07;;;9.60;99.90;;;;;;4972194;28;20646;-66
2022/09/27 02:30:43;;;;;;;2.50;1.10;;;9.60;99.90;;;;;;4972169;28;20191;-66
2022/09/27 02:33:29;;;;;;;1.47;1.20;;;9.50;99.90;;;;;;4972173;28;20187;-66
2022/09/27 02:35:59;;;;;;;1.67;1.23;;;9.50;99.90;;;;;;4972042;28;20222;-65
2022/09/27 02:38:29;;;;;;;1.93;1.10;;;9.50;99.90;;;;;;4972022;28;20580;-66
2022/09/27 02:40:59;;;;;;;2.00;0.90;;;9.50;99.90;;;;;;4974624;28;20693;-66
2022/09/27 02:43:32;;;;;;;1.10;1.00;;;9.50;99.90;;;;;;4976851;28;20207;-66
2022/09/27 02:46:20;;;;;;;1.47;1.10;;;9.60;99.90;;;;;;4959539;28;20210;-66
2022/09/27 02:49:01;;;;;;;1.87;1.27;;;9.60;99.90;;;;;;4975647;28;20210;-66
2022/09/27 02:51:43;;;;;;;2.10;1.00;;;9.50;99.90;;;;;;4975673;28;20183;-66
2022/09/27 02:54:19;;;;;;;1.93;1.03;;;9.50;99.90;;;;;;4974762;28;20211;-66
2022/09/27 02:57:17;;;;;;;1.23;1.00;;;9.50;99.90;;;;;;4976585;28;20195;-66
2022/09/27 03:00:05;;;;;;;1.70;1.00;;;9.50;99.90;;;;;;4976410;28;20223;-65
2022/09/27 03:02:51;;;;;;;1.07;0.93;;;9.50;99.90;;;;;;4975544;28;20207;-64
2022/09/27 03:05:40;;;;;;;1.63;0.97;;;9.50;99.90;;;;;;4975288;28;20698;-67
2022/09/27 03:08:12;;;;;;;1.53;0.80;;;9.50;99.90;;;;;;4975221;28;20555;-67
2022/09/27 03:10:41;;;;;;;1.23;1.00;;;9.50;99.90;;;;;;4976404;28;20187;-67
2022/09/27 03:13:10;;;;;;;1.10;1.00;;;9.50;99.90;;;;;;4975112;28;20195;-66
2022/09/27 03:15:40;;;;;;;2.60;0.97;;;9.50;99.90;;;;;;4975174;28;20219;-66
2022/09/27 03:18:08;;;;;;;1.13;1.03;;;9.50;99.90;;;;;;4976303;28;20213;-66
2022/09/27 03:20:56;;;;;;;1.53;1.10;;;9.60;99.90;;;;;;4976160;28;20210;-65
2022/09/27 03:23:28;;;;;;;1.50;1.10;;;9.50;99.90;;;;;;4958976;28;20201;-67
2022/09/27 03:25:56;;;;;;;1.63;1.30;;;9.50;99.90;;;;;;4976132;28;20218;-66
2022/09/27 03:28:28;;;;;;;1.50;0.90;;;9.50;99.90;;;;;;4975012;28;20194;-66
2022/09/27 03:30:57;;;;;;;2.20;0.80;;;9.50;99.90;;;;;;4974939;28;20198;-66
2022/09/27 03:33:47;;;;;;;1.10;1.00;;;9.60;99.90;;;;;;4974869;28;20194;-64
2022/09/27 03:36:15;;;;;;;1.20;0.90;;;9.60;99.90;;;;;;4974697;28;20215;-66
2022/09/27 03:38:46;;;;;;;3.20;1.13;;;9.60;99.90;;;;;;4975822;28;20201;-66
2022/09/27 03:41:18;;;;;;;1.87;0.83;;;9.60;99.90;;;;;;4974620;28;20579;-66
2022/09/27 03:43:47;;;;;;;1.73;1.20;;;9.60;99.90;;;;;;4974761;28;20195;-67
2022/09/27 03:46:16;;;;;;;2.00;1.80;;;9.60;99.90;;;;;;4974567;28;20215;-65
2022/09/27 03:48:45;;;;;;;1.27;1.00;;;9.60;99.90;;;;;;4958575;28;20571;-65
2022/09/27 03:51:13;;;;;;;0.90;0.90;;;9.60;99.90;;;;;;4957494;28;20210;-66
2022/09/27 03:53:42;;;;;;;2.83;1.43;;;9.60;99.90;;;;;;4974570;28;20228;-66
2022/09/27 03:56:13;;;;;;;1.10;0.90;;;9.60;99.90;;;;;;4973279;28;20234;-65
2022/09/27 03:58:42;;;;;;;1.67;0.97;;;9.60;99.90;;;;;;4974100;28;20225;-67
2022/09/27 04:01:11;;;;;;;1.20;0.80;;;9.60;99.90;;;;;;4974184;28;20223;-66
2022/09/27 04:03:41;;;;;;;0.67;0.67;;;9.60;99.90;;;;;;4957665;28;20210;-66
2022/09/27 04:06:31;;;;;;;2.27;1.20;;;9.60;99.90;;;;;;4974159;28;20225;-66
2022/09/27 04:09:00;;;;;;;2.57;1.00;;;9.60;99.90;;;;;;4974266;28;20198;-66
2022/09/27 04:11:45;;;;;;;1.13;1.00;;;9.60;99.90;;;;;;4973661;28;20215;-66
2022/09/27 04:14:14;;;;;;;1.20;0.97;;;9.60;99.90;;;;;;4974088;28;20195;-66
2022/09/27 04:17:03;;;;;;;1.57;0.80;;;9.60;99.90;;;;;;4974282;28;20213;-65
2022/09/27 04:19:54;;;;;;;1.73;0.83;;;9.60;99.90;;;;;;4957834;28;20206;-67
2022/09/27 04:22:23;;;;;;;1.80;0.80;;;9.60;99.90;;;;;;4973869;28;20698;-66
2022/09/27 04:24:51;;;;;;;1.17;0.80;;;9.60;99.90;;;;;;4973840;28;20679;-66
2022/09/27 04:27:31;;;;;;;1.90;0.80;;;9.60;99.90;;;;;;4973901;28;20193;-66
2022/09/27 04:29:59;;;;;;;2.53;1.00;;;9.50;99.90;;;;;;4957775;28;20222;-65
2022/09/27 04:32:48;;;;;;;3.93;1.10;;;9.50;99.90;;;;;;4964647;28;20215;-66
2022/09/27 04:38:39;;;;;;;2.13;1.20;;;9.40;99.90;;;;;;4957467;28;20202;-65
2022/09/27 04:41:09;;;;;;;3.83;1.20;;;9.30;99.90;;;;;;4973576;28;20625;-68
2022/09/27 04:43:41;;;;;;;4.70;1.10;;;9.30;99.90;;;;;;4973507;28;20182;-67
2022/09/27 04:46:10;;;;;;;2.67;1.20;;;9.20;99.90;;;;;;4972092;28;20233;-66
2022/09/27 04:48:40;;;;;;;7.20;1.60;;;9.20;99.90;;;;;;4973387;28;20198;-66
2022/09/27 04:51:10;;;;;;;5.83;1.40;;;9.20;99.90;;;;;;4973402;28;20205;-66
2022/09/27 04:53:39;;;;;;;2.93;1.60;;;9.10;99.90;;;;;;4974491;28;20199;-66
2022/09/27 04:56:08;;;;;;;3.37;1.30;;;9.10;99.90;;;;;;4973277;28;20218;-66
2022/09/27 04:58:37;;;;;;;5.47;2.10;;;9.00;99.90;;;;;;4973213;28;20206;-67
2022/09/27 05:01:08;;;;;;;3.73;1.50;;;9.00;99.90;;;;;;4973143;28;20223;-66
2022/09/27 05:03:46;;;;;;;3.80;1.53;;;9.10;99.90;;;;;;4974626;28;20206;-67
2022/09/27 05:06:16;;;;;;;3.13;1.60;;;9.10;99.90;;;;;;4973287;28;20214;-68
2022/09/27 05:08:45;;;;;;;3.07;1.70;;;9.10;99.90;;;;;;4973059;28;20205;-66
2022/09/27 05:11:26;;;;;;;2.97;2.03;;;9.00;99.90;;;;;;4973138;28;20195;-67
2022/09/27 05:14:20;;;;;;;5.37;3.00;;;9.00;99.90;;;;;;4971112;28;20214;-67
2022/09/27 05:16:57;;;;;;;6.00;1.90;;;9.00;99.90;;;;;;4973101;28;20186;-67
2022/09/27 05:20:02;;;;;;;3.07;1.87;;;9.00;99.90;;;;;;4914757;29;20211;-66
2022/09/27 05:22:50;;;;;;;4.47;1.90;;;9.00;99.90;;;;;;4954655;28;20250;-67
2022/09/27 05:25:19;;;;;;;7.83;2.27;;;9.00;99.90;;;;;;4972737;28;20211;-66
2022/09/27 05:27:49;;;;;;;8.87;2.10;;;9.00;99.90;;;;;;4972735;28;20206;-66
2022/09/27 05:30:18;;;;;;;3.20;2.00;;;9.00;99.90;;;;;;4972838;28;20194;-66
2022/09/27 05:32:52;;;;;;;8.90;2.13;;;8.90;99.90;;;;;;4972783;28;20193;-67
2022/09/27 05:35:27;;;;;;;4.17;2.40;;;8.90;99.90;;;;;;4973838;28;20218;-68
2022/09/27 05:37:59;;;;;;;6.13;2.50;;;9.00;99.90;;;;;;4972589;28;20573;-66
2022/09/27 05:40:31;;;;;;;7.63;3.23;;;8.90;99.90;;;;;;4972641;28;20197;-66
2022/09/27 05:43:15;;;;;;;7.13;3.70;;;8.90;99.90;;;;;;4956558;28;20225;-66
2022/09/27 05:45:44;;;;;;;9.80;4.23;;;8.90;99.90;;;;;;4972442;28;20215;-67
2022/09/27 05:48:16;;;;;;;6.93;3.30;;;8.90;99.90;;;;;;4972488;28;20253;-66
2022/09/27 05:50:53;;;;;;;6.57;3.47;;;8.90;99.90;;;;;;4972484;28;20191;-66
2022/09/27 05:53:22;;;;;;;5.30;3.30;;;8.90;99.90;;;;;;4972398;28;20206;-66
2022/09/27 05:55:51;;;;;;;3.90;2.63;;;8.90;99.90;;;;;;4972330;28;20574;-67
2022/09/27 05:58:28;;;;;;;3.10;2.03;;;9.00;99.90;;;;;;4972556;28;20190;-66
2022/09/27 06:01:10;;;;;;;2.67;1.97;;;9.00;99.90;;;;;;4956457;28;20190;-68
2022/09/27 06:04:04;;;;;;;5.23;2.10;;;9.00;99.90;;;;;;4946236;28;20211;-67
2022/09/27 06:06:57;;;;;;;6.53;2.53;;;8.90;99.90;;;;;;4956530;28;20199;-67
2022/09/27 06:09:27;;;;;;;4.63;2.20;;;8.90;99.90;;;;;;4973540;28;20206;-67
2022/09/27 06:11:56;;;;;;;2.83;1.97;;;8.90;99.90;;;;;;4972414;28;20194;-66
2022/09/27 06:14:26;;;;;;;3.30;1.93;;;8.90;99.90;;;;;;4973935;28;20190;-67
2022/09/27 06:17:00;;;;;;;4.63;1.90;;;9.00;99.90;;;;;;4976201;28;20213;-66
2022/09/27 06:19:34;;;;;;;2.03;1.73;;;9.00;99.90;;;;;;4976351;28;20674;-66
2022/09/27 06:22:03;;;;;;;3.17;1.53;;;9.00;99.90;;;;;;4977306;28;20222;-66
2022/09/27 06:24:45;;;;;;;3.10;1.60;;;8.90;99.90;;;;;;4976194;28;20210;-66
2022/09/27 06:27:21;;;;;;;1.40;1.30;;;8.90;99.90;;;;;;4976206;28;20201;-65
2022/09/27 06:30:00;;;;;;;2.53;1.10;;;9.00;99.90;;;;;;4977199;28;20194;-66
2022/09/27 06:32:42;;;;;;;2.87;1.33;;;9.00;99.90;;;;;;4975959;28;20205;-66
2022/09/27 06:35:26;;;;;;;3.13;1.20;;;8.90;99.90;;;;;;4976100;28;20210;-67
2022/09/27 06:37:56;;;;;;;3.83;1.53;;;8.90;99.90;;;;;;4975759;28;20198;-66
2022/09/27 06:40:27;;;;;;;2.33;1.30;;;8.90;99.90;;;;;;4975955;28;20187;-66
2022/09/27 06:43:22;;;;;;;1.60;1.47;;;8.90;99.90;;;;;;4958220;28;20257;-66
2022/09/27 06:46:14;;;;;;;2.13;1.20;;;8.90;99.90;;;;;;4968883;28;20230;-66
2022/09/27 06:48:43;;;;;;;2.20;1.50;;;9.00;99.90;;;;;;4977355;28;20662;-67
2022/09/27 06:51:17;;;;;;;1.63;1.30;;;8.90;99.90;;;;;;4975670;28;20186;-66
2022/09/27 06:53:46;;;;;;;2.60;1.30;;;9.00;99.90;;;;;;4975723;28;20187;-67
2022/09/27 06:56:15;;;;;;;2.13;1.30;;;8.90;99.90;;;;;;4975539;28;20221;-66
2022/09/27 07:01:44;;;;;;;3.47;1.20;;;9.00;99.90;;;;;;4954493;28;20215;-65
2022/09/27 07:04:32;;;;;;;2.90;1.10;;;8.90;99.90;;;;;;4976513;28;20211;-66
2022/09/27 07:07:09;;;;;;;2.00;1.27;;;8.90;99.90;;;;;;4974424;28;20210;-67
2022/09/27 07:09:45;;;;;;;2.60;1.10;;;9.00;99.90;;;;;;4975343;28;20669;-65
2022/09/27 07:12:14;;;;;;;2.03;1.30;;;9.00;99.90;;;;;;4975277;28;20575;-68
2022/09/27 07:14:43;;;;;;;2.23;1.10;;;9.00;99.90;;;;;;4975261;28;20223;-66
2022/09/27 07:17:15;;;;;;;3.07;0.90;;;9.10;99.90;;;;;;4975200;28;20187;-66
2022/09/27 07:19:46;;;;;;;1.57;1.00;;;9.00;99.90;;;;;;4974217;28;20202;-66
2022/09/27 07:22:16;;;;;;;1.20;0.90;;;9.00;99.90;;;;;;4975060;28;20545;-66
2022/09/27 07:24:48;;;;;;;0.87;0.80;;;9.00;99.90;;;;;;4974562;28;20234;-67
2022/09/27 07:27:17;;;;;;;1.50;1.00;;;9.10;99.90;;;;;;4975029;28;20198;-67
2022/09/27 07:29:46;;;;;;;2.57;0.90;;;9.10;99.90;;;;;;4975075;28;20563;-66
2022/09/27 07:32:15;;;;;;;3.37;1.30;;;9.10;99.90;;;;;;4974901;28;20202;-65
2022/09/27 07:34:44;;;;;;;2.67;1.40;;;9.10;99.90;;;;;;4974871;28;20794;-66
2022/09/27 07:37:13;;;;;;;1.60;1.20;;;9.10;99.90;;;;;;4974635;28;20208;-65
2022/09/27 07:39:44;;;;;;;1.43;0.80;;;9.10;99.90;;;;;;4975900;28;20547;-67
2022/09/27 07:42:14;;;;;;;1.60;1.30;;;9.20;99.90;;;;;;4974675;28;20203;-67
2022/09/27 07:44:46;;;;;;;3.33;1.80;;;9.20;99.90;;;;;;4974640;28;20233;-66
2022/09/27 07:47:29;;;;;;;2.50;1.30;;;9.20;99.90;;;;;;4974582;28;20187;-66
2022/09/27 07:50:27;;;;;;;1.40;1.00;;;9.20;99.90;;;;;;4923263;28;20235;-67
2022/09/27 07:52:59;;;;;;;2.73;1.00;;;9.30;99.90;;;;;;4975700;28;20562;-65
2022/09/27 07:55:29;;;;;;;1.70;1.00;;;9.30;99.90;;;;;;4975580;28;20229;-66
2022/09/27 07:58:06;;;;;;;1.00;0.90;;;9.40;99.90;;;;;;4974515;28;20190;-67
2022/09/27 08:00:35;;;;;;;1.20;0.90;;;9.50;99.90;;;;;;4975629;28;20182;-65
2022/09/27 08:03:06;;;;;;;1.53;1.20;;;9.60;99.90;;;;;;4974583;28;20222;-67
2022/09/27 08:05:36;;;;;;;1.17;0.97;;;9.70;99.90;;;;;;4974286;28;20712;-67
2022/09/27 08:08:05;;;;;;;1.07;1.00;;;9.80;99.90;;;;;;4975566;28;20203;-66
2022/09/27 08:10:35;;;;;;;1.70;0.73;;;9.90;99.90;;;;;;4974191;28;20666;-65
2022/09/27 08:13:05;;;;;;;1.53;1.03;;;10.00;99.90;;;;;;4974329;28;20549;-66
2022/09/27 08:15:35;;;;;;;1.00;0.80;;;9.90;99.90;;;;;;4975332;28;20226;-67
2022/09/27 08:18:05;;;;;;;0.90;0.70;;;10.00;99.90;;;;;;4974271;28;20194;-66
2022/09/27 08:20:52;;;;;;;2.00;0.90;;;10.10;99.90;;;;;;4975164;28;20198;-66
2022/09/27 08:23:30;;;;;;;1.03;0.70;;;10.10;99.90;;;;;;4974069;28;20666;-66
2022/09/27 08:26:20;;;;;;;1.30;0.90;;;10.00;99.90;;;;;;4973775;28;20222;-67
2022/09/27 08:28:55;;;;;;;0.80;0.80;;;10.10;99.90;;;;;;4973852;28;20195;-67
2022/09/27 08:31:27;;;;;;;1.53;0.90;;;10.10;99.90;;;;;;4973864;28;20183;-67
2022/09/27 08:33:57;;;;;;;1.13;0.80;;;10.10;99.90;;;;;;4973795;28;20656;-66
2022/09/27 08:36:27;;;;;;;1.43;0.80;;;10.20;99.90;;;;;;4972952;28;20214;-67
2022/09/27 08:38:58;;;;;;;0.93;0.80;;;10.20;99.90;;;;;;4973579;28;20212;-67
2022/09/27 08:41:38;;;;;;;2.23;0.97;;;10.20;99.90;;;;;;4973546;28;20190;-66
2022/09/27 08:44:18;;;;;;;1.40;0.83;;;10.20;99.90;;;;;;4956937;28;20233;-67
2022/09/27 08:47:05;;;;;;;2.40;1.10;;;10.20;99.90;;;;;;4957580;28;20187;-65
2022/09/27 08:49:39;;;;;;;1.47;0.80;;;10.10;99.90;;;;;;4957561;28;20669;-66
2022/09/27 08:52:17;;;;;;;1.80;0.90;;;9.90;99.90;;;;;;4972319;28;20198;-67
2022/09/27 08:54:48;;;;;;;1.83;0.87;;;9.90;99.90;;;;;;4973339;28;20218;-68
2022/09/27 08:57:19;;;;;;;0.80;0.70;;;9.70;99.90;;;;;;4973490;28;20195;-66
2022/09/27 08:59:55;;;;;;;1.27;0.67;;;9.60;99.90;;;;;;4973429;28;20190;-67
2022/09/27 09:02:25;;;;;;;1.60;0.73;;;9.60;99.90;;;;;;4957310;28;20183;-66
2022/09/27 09:05:00;;;;;;;0.87;0.67;;;9.40;99.90;;;;;;4973157;28;20233;-66
2022/09/27 09:07:47;;;;;;;1.63;0.90;;;9.30;99.90;;;;;;4973217;28;20198;-67
2022/09/27 09:13:30;;;;;;;1.73;0.80;;;9.30;99.90;;;;;;4957105;28;20573;-66
2022/09/27 09:16:13;;;;;;;1.20;0.90;;;9.40;99.90;;;;;;4973114;28;20593;-67
2022/09/27 09:19:03;;;;;;;1.90;1.13;;;9.50;99.90;;;;;;4973203;28;20193;-68
2022/09/27 09:22:10;;;;;;;0.90;0.90;;;9.60;99.90;;;;;;4951534;28;20206;-68
2022/09/27 09:24:50;;;;;;;1.77;1.10;;;9.60;99.90;;;;;;4956609;28;20233;-69
2022/09/27 09:27:26;;;;;;;1.77;1.13;;;9.60;99.90;;;;;;4972998;28;20198;-66
2022/09/27 09:30:05;;;;;;;1.03;0.90;;;9.50;99.90;;;;;;4972854;28;20190;-66
2022/09/27 09:32:52;;;;;;;2.20;0.90;;;9.50;99.90;;;;;;4972858;28;20191;-66
2022/09/27 09:35:25;;;;;;;0.80;0.80;;;9.40;99.90;;;;;;4974139;28;20214;-67
2022/09/27 09:37:58;;;;;;;1.17;0.80;;;9.50;99.90;;;;;;4972564;28;20206;-67
2022/09/27 09:40:32;;;;;;;1.20;0.90;;;9.40;99.90;;;;;;4972708;28;20187;-67
2022/09/27 09:43:05;;;;;;;1.00;0.90;;;9.40;99.90;;;;;;4973864;28;20529;-67
2022/09/27 09:45:40;;;;;;;2.37;0.97;;;9.40;99.90;;;;;;4973637;28;20238;-66
2022/09/27 09:48:21;;;;;;;1.83;0.90;;;9.40;99.90;;;;;;4972465;28;20178;-67
2022/09/27 09:50:53;;;;;;;0.97;0.80;;;9.30;99.90;;;;;;4972935;28;20286;-68
2022/09/27 09:53:28;;;;;;;2.27;0.90;;;9.30;99.90;;;;;;4973640;28;20685;-67
2022/09/27 09:56:01;;;;;;;1.50;1.10;;;9.20;99.90;;;;;;4971734;28;20226;-68
2022/09/27 09:58:40;;;;;;;1.30;1.20;;;9.20;99.90;;;;;;4972546;28;20543;-66
2022/09/27 10:01:19;;;;;;;2.23;1.10;;;9.30;99.90;;;;;;4972645;28;20198;-66
2022/09/27 10:03:48;;;;;;;2.27;1.17;;;9.40;99.90;;;;;;4972417;28;20202;-66
2022/09/27 10:06:19;;;;;;;2.23;1.20;;;9.60;99.90;;;;;;4972248;28;20241;-66
2022/09/27 10:08:52;;;;;;;4.73;1.40;;;9.70;99.90;;;;;;4971676;28;20213;-67
2022/09/27 10:11:46;;;;;;;1.57;1.03;;;9.80;99.90;;;;;;4956403;28;20197;-66
2022/09/27 10:14:36;;;;;;;1.80;1.10;;;9.80;99.90;;;;;;4972356;28;20717;-67
2022/09/27 10:17:13;;;;;;;2.77;1.00;;;9.90;99.90;;;;;;4973527;28;20214;-65
2022/09/27 10:19:43;;;;;;;2.53;1.10;;;9.90;99.90;;;;;;4972321;28;20186;-66
2022/09/27 10:22:16;;;;;;;1.03;0.90;;;9.90;99.90;;;;;;4972252;28;20198;-66
2022/09/27 10:24:58;;;;;;;1.53;1.17;;;10.00;99.90;;;;;;4956069;28;20226;-67
2022/09/27 10:27:59;;;;;;;1.37;0.90;;;10.20;99.90;;;;;;4958289;28;20410;-67
2022/09/27 10:30:35;;;;;;;0.83;0.80;;;10.20;99.90;;;;;;4972224;28;20191;-67
2022/09/27 10:33:17;;;;;;;1.23;0.70;;;10.20;99.90;;;;;;4956060;28;20198;-67
2022/09/27 10:35:54;;;;;;;0.80;0.80;;;10.10;99.90;;;;;;4956155;28;20698;-66
2022/09/27 10:38:32;;;;;;;1.60;0.83;;;10.00;99.90;;;;;;4972040;28;20202;-68
2022/09/27 10:41:24;;;;;;;0.70;0.70;;;10.00;99.90;;;;;;4955969;28;20205;-67
2022/09/27 10:44:20;;;;;;;0.73;0.63;;;9.90;99.90;;;;;;4971970;28;20198;-68
2022/09/27 10:47:06;;;;;;;0.77;0.70;;;9.90;99.90;;;;;;4957672;28;20534;-67
2022/09/27 10:50:06;;;;;;;1.00;0.70;;;9.90;99.90;;;;;;4956049;28;20217;-66
2022/09/27 10:53:05;;;;;;;0.80;0.80;;;10.00;99.90;;;;;;4971941;28;20529;-67
2022/09/27 10:55:36;;;;;;;0.87;0.80;;;10.10;99.90;;;;;;4971948;28;20578;-67
2022/09/27 10:58:06;;;;;;;1.07;0.83;;;10.40;99.90;;;;;;4971941;28;20662;-68
2022/09/27 11:00:37;;;;;;;1.80;0.90;;;10.60;99.90;;;;;;4973634;28;20191;-67
2022/09/27 11:03:14;;;;;;;1.23;0.77;;;10.80;99.90;;;;;;4975463;28;20265;-67
2022/09/27 11:05:44;;;;;;;1.60;0.70;;;10.90;99.90;;;;;;4976467;28;20236;-68
2022/09/27 11:08:28;;;;;;;1.17;0.87;;;11.00;99.90;;;;;;4975518;28;20190;-69
2022/09/27 11:11:05;;;;;;;0.67;0.63;;;11.00;99.90;;;;;;4959205;28;20184;-66
2022/09/27 11:13:36;;;;;;;1.20;0.87;;;10.80;99.90;;;;;;4976496;28;20201;-66
2022/09/27 11:16:28;;;;;;;1.20;0.80;;;10.80;99.90;;;;;;4975115;28;20226;-67
2022/09/27 11:19:07;;;;;;;1.67;0.60;;;10.60;99.90;;;;;;4975223;28;20550;-67
2022/09/27 11:21:52;;;;;;;2.07;0.83;;;10.70;99.90;;;;;;4959240;28;20561;-68
2022/09/27 11:24:32;;;;;;;2.73;0.80;;;11.00;99.90;;;;;;4976244;28;20183;-68
2022/09/27 11:27:13;;;;;;;1.00;0.73;;;11.20;99.90;;;;;;4974946;28;20206;-68
2022/09/27 11:29:56;;;;;;;1.60;0.80;;;11.50;99.90;;;;;;4975107;28;20186;-67
2022/09/27 11:33:20;;;;;;;0.80;0.70;;;11.50;99.90;;;;;;4975132;28;20549;-68
2022/09/27 11:35:58;;;;;;;0.80;0.60;;;11.60;99.90;;;;;;4975853;28;20221;-67
2022/09/27 11:38:31;;;;;;;1.45;0.70;;;11.80;99.90;;;;;;4974794;28;20213;-67
2022/09/27 11:41:32;;;;;;;3.13;0.82;;;12.10;99.90;;;;;;4974719;28;20653;-69
2022/09/27 11:44:18;;;;;;;0.70;0.68;;;12.40;99.90;;;;;;4974757;28;20183;-67
2022/09/27 11:46:54;;;;;;;1.60;0.80;;;12.70;99.90;;;;;;4974754;28;20225;-69
2022/09/27 11:49:46;;;;;;;1.33;0.70;;;12.70;99.90;;;;;;4974710;28;20190;-69
2022/09/27 11:52:38;;;;;;;1.30;0.82;;;12.50;99.90;;;;;;4975794;28;20210;-68
2022/09/27 11:55:20;;;;;;;0.93;0.60;;;12.10;99.90;;;;;;4974428;28;20210;-68
2022/09/27 11:58:00;;;;;;;1.85;0.80;;;11.70;99.90;;;;;;4974612;28;20702;-67
2022/09/27 12:00:42;;;;;;;0.88;0.80;;;11.50;99.90;;;;;;4974420;28;20183;-68
2022/09/27 12:03:46;;;;;;;0.90;0.70;;;11.40;99.90;;;;;;4958321;28;20655;-68
2022/09/27 12:06:21;;;;;;;2.08;0.80;;;11.70;99.90;;;;;;4974230;28;20585;-69
2022/09/27 12:09:01;;;;;;;0.65;0.65;;;12.00;99.90;;;;;;4974195;28;20194;-68
2022/09/27 12:11:38;;;;;;;1.95;0.90;;;12.50;99.90;;;;;;4957033;28;20191;-69
2022/09/27 12:14:21;;;;;;;2.65;1.20;;;13.00;99.90;;;;;;4974252;28;20191;-70
2022/09/27 12:16:57;;;;;;;2.78;1.17;;;13.30;99.90;;;;;;4974231;28;20255;-70
2022/09/27 12:19:30;;;;;;;2.38;1.02;;;13.50;99.90;;;;;;4974078;28;20193;-68
2022/09/27 12:22:12;;;;;;;1.40;1.10;;;13.60;99.90;;;;;;4974033;28;20647;-69
2022/09/27 12:24:44;;;;;;;2.50;1.50;;;13.50;99.90;;;;;;4973967;28;20281;-69
2022/09/27 12:27:36;;;;;;;2.28;1.70;;;13.20;99.90;;;;;;4973892;28;20221;-69
2022/09/27 12:30:06;;;;;;;2.08;1.58;;;13.10;99.90;;;;;;4973920;28;20193;-69
2022/09/27 12:32:43;;;;;;;2.33;1.60;;;13.10;99.90;;;;;;4974998;28;20194;-69
2022/09/27 12:35:19;;;;;;;2.95;1.30;;;13.00;99.90;;;;;;4973762;28;20218;-68
2022/09/27 12:37:55;;;;;;;2.55;1.52;;;12.70;99.90;;;;;;4973684;28;20221;-69
2022/09/27 12:40:28;;;;;;;1.30;1.20;;;12.40;99.90;;;;;;4973642;28;20198;-68
2022/09/27 12:43:07;;;;;;;2.85;1.17;;;12.30;99.90;;;;;;4973654;28;20670;-68
2022/09/27 12:46:01;;;;;;;2.25;1.10;;;12.50;99.90;;;;;;4973425;28;20214;-68
2022/09/27 12:48:43;;;;;;;2.70;1.30;;;12.50;99.90;;;;;;4973506;28;20186;-69
2022/09/27 12:51:17;;;;;;;2.63;1.20;;;12.30;99.90;;;;;;4957451;28;20201;-67
2022/09/27 12:54:04;;;;;;;1.85;1.10;;;12.20;99.90;;;;;;4957324;28;20195;-69
2022/09/27 12:56:44;;;;;;;1.85;1.40;;;12.10;99.90;;;;;;4972640;28;20674;-67
2022/09/27 12:59:42;;;;;;;2.67;1.48;;;12.00;99.90;;;;;;4973315;28;20212;-67
2022/09/27 13:02:50;;;;;;;4.60;1.35;;;12.00;99.90;;;;;;4972721;28;20226;-68
2022/09/27 13:06:04;;;;;;;2.38;1.50;;;12.00;99.90;;;;;;4957037;28;20217;-68
2022/09/27 13:09:02;;;;;;;3.90;2.03;;;12.00;99.90;;;;;;4973101;28;20195;-68
2022/09/27 13:11:46;;;;;;;4.03;1.67;;;11.90;99.90;;;;;;4973157;28;20651;-68
2022/09/27 13:14:19;;;;;;;2.08;1.40;;;11.80;99.90;;;;;;4974017;28;20210;-68
2022/09/27 13:16:51;;;;;;;2.50;1.60;;;11.70;99.90;;;;;;4973111;28;20529;-69
2022/09/27 13:19:41;;;;;;;2.95;1.50;;;11.50;99.90;;;;;;4972982;28;20183;-68
2022/09/27 13:22:37;;;;;;;0.90;0.77;;;11.50;99.90;;;;;;4972828;28;20194;-68
2022/09/27 13:25:50;;;;;;;2.10;0.88;;;11.30;99.90;;;;;;4956653;28;20721;-68
2022/09/27 13:28:34;;;;;;;1.63;0.80;;;11.20;99.90;;;;;;4956692;28;20225;-67
2022/09/27 13:31:09;;;;;;;1.50;0.70;;;11.10;99.90;;;;;;4972949;28;20190;-65
2022/09/27 13:33:48;;;;;;;1.53;0.83;;;11.00;99.90;;;;;;4972623;28;20666;-66
2022/09/27 13:36:31;;;;;;;1.07;0.60;;;10.90;99.90;;;;;;4972666;28;20214;-66
2022/09/27 13:39:21;;;;;;;1.63;0.80;;;10.80;99.90;;;;;;4972741;28;20191;-67
2022/09/27 13:42:31;;;;;;;2.17;0.90;;;10.80;99.90;;;;;;4973847;28;20225;-65
2022/09/27 13:45:17;;;;;;;2.27;0.70;;;10.80;99.90;;;;;;4972601;28;20221;-64
2022/09/27 13:47:48;;;;;;;1.13;0.60;;;10.70;99.90;;;;;;4972522;28;20221;-66
2022/09/27 13:50:28;;;;;;;1.00;0.73;;;10.70;99.90;;;;;;4972552;28;20193;-64
2022/09/27 13:53:08;;;;;;;1.03;0.90;;;10.80;99.90;;;;;;4971596;28;20210;-65
2022/09/27 13:55:44;;;;;;;1.93;0.90;;;10.80;99.90;;;;;;4956285;28;20233;-66
2022/09/27 13:58:45;;;;;;;1.50;1.10;;;10.70;99.90;;;;;;4972418;28;20202;-65